Time;durP1;ratioP1;P1;durP2;ratioP2;P2;SDS_P1;SDS_P2;PMS_P1;PMS_P2;Temp;Humidity;BMP_temperature;BMP_pressure;BME280_temperature;BME280_humidity;BME280_pressure;Samples;Min_cycle;Max_cycle;Signal;HPM_P1;HPM_P2
2022/01/15 00:00:38;;;;;;;1.92;0.80;;;;;;;7.79;50.33;96388.28;3390139;29;20292;-70
2022/01/15 00:02:20;;;;;;;1.80;0.40;;;;;;;7.76;50.72;96386.94;3390057;29;20047;-71
2022/01/15 00:04:00;;;;;;;1.08;0.55;;;;;;;7.80;50.98;96390.69;3389504;29;20128;-71
2022/01/15 00:05:41;;;;;;;1.77;0.50;;;;;;;7.84;51.02;96390.97;3389802;29;20051;-72
2022/01/15 00:07:22;;;;;;;1.00;0.60;;;;;;;7.84;51.10;96394.41;3389844;29;20044;-72
2022/01/15 00:09:03;;;;;;;1.65;0.73;;;;;;;7.83;51.13;96395.47;3389888;29;20411;-71
2022/01/15 00:10:44;;;;;;;1.10;0.70;;;;;;;7.88;51.40;96393.91;3396252;29;20040;-71
2022/01/15 00:12:24;;;;;;;0.45;0.45;;;;;;;7.91;51.19;96388.09;3402097;29;20050;-71
2022/01/15 00:14:27;;;;;;;0.90;0.50;;;;;;;7.89;51.12;96395.50;3388473;29;20040;-71
2022/01/15 00:16:24;;;;;;;0.63;0.63;;;;;;;7.81;51.01;96394.91;3402875;29;20047;-71
2022/01/15 00:18:11;;;;;;;1.75;0.50;;;;;;;7.75;50.98;96400.47;3402638;29;20051;-70
2022/01/15 00:19:51;;;;;;;0.60;0.50;;;;;;;7.67;50.80;96392.97;3400294;29;20036;-70
2022/01/15 00:21:32;;;;;;;1.95;0.68;;;;;;;7.61;51.09;96394.81;3389814;29;20615;-70
2022/01/15 00:23:13;;;;;;;0.65;0.50;;;;;;;7.58;51.24;96390.81;3389005;29;20513;-71
2022/01/15 00:24:54;;;;;;;1.42;0.43;;;;;;;7.60;51.49;96399.31;3389653;29;20040;-71
2022/01/15 00:26:35;;;;;;;1.35;0.60;;;;;;;7.67;51.62;96390.34;3389521;29;20079;-73
2022/01/15 00:28:16;;;;;;;2.20;0.70;;;;;;;7.72;51.52;96407.09;3389588;29;20075;-73
2022/01/15 00:29:56;;;;;;;1.17;0.55;;;;;;;7.73;51.36;96403.38;3389586;29;20135;-71
2022/01/15 00:31:37;;;;;;;1.52;0.50;;;;;;;7.77;51.05;96401.00;3402439;29;20459;-71
2022/01/15 00:33:18;;;;;;;1.25;0.45;;;;;;;7.88;52.60;96409.81;3402552;29;20207;-70
2022/01/15 00:35:00;;;;;;;0.40;0.40;;;;;;;8.04;53.57;96400.84;3402515;29;20078;-72
2022/01/15 00:36:41;;;;;;;0.52;0.50;;;;;;;8.23;54.14;96401.97;3403251;29;20063;-71
2022/01/15 00:38:22;;;;;;;0.38;0.38;;;;;;;8.39;53.67;96405.53;3401858;29;20526;-72
2022/01/15 00:40:07;;;;;;;2.25;0.70;;;;;;;8.59;54.25;96403.97;3389466;29;20071;-71
2022/01/15 00:41:49;;;;;;;0.40;0.40;;;;;;;8.77;53.78;96407.97;3389534;29;20051;-72
2022/01/15 00:43:30;;;;;;;0.85;0.45;;;;;;;8.87;52.40;96416.75;3401191;29;20040;-70
2022/01/15 00:45:16;;;;;;;0.40;0.40;;;;;;;8.90;51.63;96418.06;3402655;29;20419;-72
2022/01/15 00:46:57;;;;;;;2.17;0.57;;;;;;;8.85;50.67;96408.25;3402732;29;20087;-72
2022/01/15 00:48:38;;;;;;;3.08;0.88;;;;;;;8.74;50.22;96412.75;3401826;29;20047;-71
2022/01/15 00:50:20;;;;;;;2.00;0.50;;;;;;;8.64;50.26;96418.03;3399994;29;20888;-71
2022/01/15 00:52:00;;;;;;;0.52;0.30;;;;;;;8.58;50.62;96426.28;3389607;29;20075;-71
2022/01/15 00:53:41;;;;;;;4.90;0.50;;;;;;;8.55;50.89;96424.94;3389568;29;20052;-71
2022/01/15 00:55:22;;;;;;;1.13;0.60;;;;;;;8.56;50.46;96426.50;3389313;29;20044;-70
2022/01/15 00:57:03;;;;;;;1.05;0.40;;;;;;;8.54;50.07;96427.84;3388999;29;20056;-73
2022/01/15 00:58:43;;;;;;;0.70;0.40;;;;;;;8.47;50.17;96430.75;3390372;29;20051;-71
2022/01/15 01:00:25;;;;;;;0.88;0.40;;;;;;;8.36;49.87;96435.19;3389309;29;20052;-71
2022/01/15 01:02:06;;;;;;;1.40;0.50;;;;;;;8.24;49.93;96435.41;3389126;29;20082;-70
2022/01/15 01:03:48;;;;;;;0.75;0.40;;;;;;;8.10;49.63;96423.69;3389326;29;20044;-70
2022/01/15 01:05:29;;;;;;;1.65;0.50;;;;;;;7.99;49.49;96443.28;3389119;29;20056;-71
2022/01/15 01:07:09;;;;;;;0.88;0.68;;;;;;;7.89;49.68;96437.91;3389058;29;20044;-70
2022/01/15 01:08:50;;;;;;;2.03;0.68;;;;;;;7.80;49.73;96438.41;3377941;29;20089;-71
2022/01/15 01:20:24;;;;;;;2.97;0.65;;;;;;;7.45;50.38;96438.19;3359374;29;20198;-71
2022/01/15 01:23:45;;;;;;;1.52;0.50;;;;;;;7.30;50.84;96452.09;3389158;29;20417;-72
2022/01/15 01:25:33;;;;;;;0.60;0.60;;;;;;;7.25;50.77;96444.91;3389080;29;20423;-71
2022/01/15 01:27:26;;;;;;;1.85;0.70;;;;;;;7.20;50.61;96444.88;3389033;29;20042;-71
2022/01/15 01:30:58;;;;;;;1.33;1.05;;;;;;;7.12;50.84;96450.63;3402255;29;20048;-71
2022/01/15 01:32:49;;;;;;;0.50;0.50;;;;;;;7.07;51.16;96454.03;3401747;29;20062;-70
2022/01/15 01:34:32;;;;;;;1.65;0.90;;;;;;;7.01;51.13;96459.56;3388139;29;20044;-70
2022/01/15 01:36:21;;;;;;;0.90;0.65;;;;;;;6.97;51.31;96454.75;3399793;29;20039;-71
2022/01/15 01:40:26;;;;;;;0.90;0.60;;;;;;;6.91;51.44;96444.38;3323486;29;20062;-72
2022/01/15 01:42:27;;;;;;;1.15;0.50;;;;;;;6.88;51.47;96450.97;3323427;29;20069;-71
2022/01/15 01:44:15;;;;;;;2.10;0.60;;;;;;;6.84;51.56;96451.72;3323411;29;20046;-71
2022/01/15 01:47:03;;;;;;;0.50;0.50;;;;;;;6.81;51.64;96455.66;3323557;29;20054;-70
2022/01/15 01:48:05;;;;;;;1.88;0.70;;;;;;;6.81;51.67;96465.44;3315127;29;20065;-70
2022/01/15 01:49:46;;;;;;;0.82;0.73;;;;;;;6.78;51.88;96459.59;3331122;29;20038;-72
2022/01/15 01:51:35;;;;;;;0.50;0.50;;;;;;;6.77;52.18;96463.31;3335998;29;20049;-72
2022/01/15 01:53:16;;;;;;;1.95;0.70;;;;;;;6.74;52.08;96465.66;3335826;29;20042;-72
2022/01/15 01:54:57;;;;;;;0.80;0.50;;;;;;;6.72;52.14;96457.97;3335973;29;20048;-69
2022/01/15 01:56:38;;;;;;;0.47;0.47;;;;;;;6.69;51.97;96462.97;3335924;29;20052;-73
2022/01/15 01:58:19;;;;;;;1.67;0.68;;;;;;;6.67;52.03;96462.41;3325049;29;20059;-71
2022/01/15 02:00:00;;;;;;;0.47;0.40;;;;;;;6.66;51.94;96468.72;3323610;29;20125;-73
2022/01/15 02:01:40;;;;;;;2.15;0.50;;;;;;;6.67;52.10;96463.22;3323291;29;20050;-72
2022/01/15 02:03:21;;;;;;;0.82;0.50;;;;;;;6.66;52.42;96463.44;3323434;29;20054;-72
2022/01/15 02:05:03;;;;;;;0.52;0.52;;;;;;;6.64;52.26;96460.28;3322841;29;20150;-70
2022/01/15 02:06:43;;;;;;;0.50;0.50;;;;;;;6.65;52.49;96464.50;3323367;29;20050;-71
2022/01/15 02:08:25;;;;;;;1.42;0.50;;;;;;;6.62;52.06;96467.66;3333683;29;20069;-72
2022/01/15 02:10:08;;;;;;;1.83;0.40;;;;;;;6.62;52.10;96468.44;3335490;29;20140;-71
2022/01/15 02:11:49;;;;;;;0.50;0.50;;;;;;;6.62;52.16;96457.06;3373011;29;20098;-71
2022/01/15 02:13:30;;;;;;;1.13;0.60;;;;;;;6.60;52.32;96473.19;3388809;29;20044;-71
2022/01/15 02:15:21;;;;;;;2.17;0.57;;;;;;;6.65;52.59;96472.44;3388751;29;20051;-70
2022/01/15 02:17:05;;;;;;;0.50;0.50;;;;;;;6.63;52.21;96477.19;3374399;29;20044;-71
2022/01/15 02:18:45;;;;;;;1.85;0.82;;;;;;;6.60;52.22;96472.38;3399490;29;20095;-71
2022/01/15 02:24:17;;;;;;;1.95;0.70;;;;;;;6.58;52.38;96477.13;3373861;29;20052;-71
2022/01/15 02:26:00;;;;;;;4.32;0.98;;;;;;;6.55;52.26;96479.22;3394067;29;20063;-71
2022/01/15 02:27:41;;;;;;;0.60;0.40;;;;;;;6.54;52.14;96472.31;3396185;29;20047;-70
2022/01/15 02:29:21;;;;;;;1.52;0.60;;;;;;;6.52;52.13;96474.41;3388076;29;20131;-70
2022/01/15 02:31:13;;;;;;;2.33;0.60;;;;;;;6.52;52.39;96481.56;3374343;29;20055;-70
2022/01/15 02:32:54;;;;;;;0.52;0.52;;;;;;;6.50;52.51;96481.78;3379092;29;20103;-71
2022/01/15 02:34:35;;;;;;;0.70;0.68;;;;;;;6.48;52.52;96478.63;3375602;29;20053;-70
2022/01/15 02:36:21;;;;;;;0.50;0.50;;;;;;;6.48;53.10;96473.34;3375456;29;20044;-72
2022/01/15 02:38:07;;;;;;;1.83;1.10;;;;;;;6.46;52.87;96483.34;3375583;29;20064;-72
2022/01/15 02:39:47;;;;;;;1.60;0.63;;;;;;;6.45;52.99;96484.38;3375410;29;20060;-70
2022/01/15 02:41:31;;;;;;;1.10;0.60;;;;;;;6.42;53.08;96486.72;3375585;29;20041;-73
2022/01/15 02:43:17;;;;;;;0.93;0.68;;;;;;;6.39;53.12;96490.66;3375700;29;20052;-71
2022/01/15 02:45:02;;;;;;;1.35;1.02;;;;;;;6.39;53.28;96479.31;3361991;29;20045;-72
2022/01/15 02:48:30;;;;;;;1.52;0.80;;;;;;;6.40;53.48;96479.06;3376425;29;20054;-78
2022/01/15 02:50:11;;;;;;;3.53;0.65;;;;;;;6.45;53.52;96484.38;3375601;29;20068;-71
2022/01/15 02:51:52;;;;;;;4.88;1.02;;;;;;;6.49;53.47;96482.84;3375636;29;20507;-72
2022/01/15 02:53:32;;;;;;;1.40;0.90;;;;;;;6.57;53.52;96496.69;3375308;29;20500;-72
2022/01/15 02:55:14;;;;;;;8.77;0.68;;;;;;;6.60;53.57;96488.25;3375336;29;20552;-71
2022/01/15 02:56:55;;;;;;;3.33;0.80;;;;;;;6.63;53.70;96501.00;3361392;29;20043;-70
2022/01/15 02:58:36;;;;;;;5.07;1.05;;;;;;;6.67;53.81;96491.53;3379696;29;20048;-70
2022/01/15 03:00:17;;;;;;;2.25;0.80;;;;;;;6.67;53.91;96497.59;3388415;29;20043;-70
2022/01/15 03:01:58;;;;;;;4.50;1.42;;;;;;;6.69;53.96;96500.00;3388179;29;20044;-70
2022/01/15 03:03:38;;;;;;;2.65;0.73;;;;;;;6.72;53.97;96502.16;3388109;29;20518;-69
2022/01/15 03:05:22;;;;;;;3.97;0.85;;;;;;;6.71;53.73;96500.53;3388156;29;20051;-70
2022/01/15 03:07:03;;;;;;;4.00;1.70;;;;;;;6.73;53.80;96507.19;3388075;29;20044;-71
2022/01/15 03:08:45;;;;;;;4.55;1.98;;;;;;;6.75;53.76;96499.00;3379374;29;20071;-70
2022/01/15 03:10:26;;;;;;;2.05;0.80;;;;;;;6.77;53.91;96507.50;3375291;29;20063;-69
2022/01/15 03:12:07;;;;;;;0.90;0.80;;;;;;;6.76;53.71;96503.25;3375831;29;20428;-71
2022/01/15 03:13:48;;;;;;;0.98;0.75;;;;;;;6.74;53.56;96506.16;3377910;29;20048;-69
2022/01/15 03:15:29;;;;;;;0.68;0.68;;;;;;;6.70;53.77;96494.47;3377568;29;20047;-71
2022/01/15 03:17:10;;;;;;;2.13;0.80;;;;;;;6.70;53.68;96512.19;3377538;29;20090;-71
2022/01/15 03:18:50;;;;;;;1.25;0.70;;;;;;;6.70;53.62;96507.69;3386151;29;20048;-69
2022/01/15 03:20:31;;;;;;;2.63;0.98;;;;;;;6.72;53.50;96523.34;3390366;29;20465;-72
2022/01/15 03:22:12;;;;;;;0.95;0.75;;;;;;;6.71;53.60;96519.06;3390662;29;20104;-70
2022/01/15 03:23:52;;;;;;;2.53;1.10;;;;;;;6.71;53.42;96516.41;3390405;29;20050;-70
2022/01/15 03:25:33;;;;;;;1.58;0.60;;;;;;;6.71;53.40;96516.41;3390235;29;20416;-69
2022/01/15 03:27:14;;;;;;;1.65;0.82;;;;;;;6.72;53.44;96521.47;3390358;29;20050;-71
2022/01/15 03:28:55;;;;;;;1.88;0.70;;;;;;;6.74;53.47;96513.31;3380597;29;20044;-69
2022/01/15 03:30:36;;;;;;;2.53;0.98;;;;;;;6.79;53.55;96521.28;3364678;29;20055;-70
2022/01/15 03:32:18;;;;;;;2.13;0.98;;;;;;;6.82;53.52;96515.50;3363702;29;20053;-71
2022/01/15 03:33:58;;;;;;;2.95;0.73;;;;;;;6.84;53.59;96513.41;3389527;29;20040;-70
2022/01/15 03:35:40;;;;;;;0.60;0.60;;;;;;;6.84;53.50;96525.81;3403339;29;20046;-71
2022/01/15 03:37:20;;;;;;;3.65;0.80;;;;;;;6.84;53.62;96526.66;3403399;29;20498;-70
2022/01/15 03:39:01;;;;;;;0.98;0.60;;;;;;;6.85;53.45;96530.88;3393391;29;20040;-71
2022/01/15 03:40:42;;;;;;;2.25;0.60;;;;;;;6.90;53.44;96530.16;3397631;29;20114;-71
2022/01/15 03:42:24;;;;;;;1.52;0.90;;;;;;;6.97;53.51;96533.41;3403442;29;20094;-72
2022/01/15 03:44:05;;;;;;;1.15;0.90;;;;;;;7.01;53.24;96534.47;3402268;29;20050;-71
2022/01/15 03:45:45;;;;;;;1.50;0.63;;;;;;;7.00;53.03;96532.91;3376348;29;20049;-73
2022/01/15 03:47:26;;;;;;;0.77;0.60;;;;;;;6.96;53.14;96537.88;3373672;29;20105;-70
2022/01/15 03:49:07;;;;;;;1.08;0.85;;;;;;;6.96;53.13;96537.88;3387766;29;20047;-70
2022/01/15 03:50:47;;;;;;;0.90;0.70;;;;;;;7.04;53.70;96535.84;3390200;29;20071;-71
2022/01/15 03:52:28;;;;;;;3.58;0.70;;;;;;;7.09;53.55;96539.31;3390385;29;20419;-71
2022/01/15 03:54:09;;;;;;;6.78;0.73;;;;;;;7.12;53.25;96545.97;3392270;29;20120;-71
2022/01/15 03:55:50;;;;;;;2.78;1.10;;;;;;;7.10;53.14;96548.88;3403491;29;20040;-72
2022/01/15 03:57:31;;;;;;;0.70;0.65;;;;;;;7.11;52.94;96544.38;3389074;29;20607;-72
2022/01/15 03:59:11;;;;;;;0.70;0.50;;;;;;;7.14;53.27;96543.88;3380193;29;20044;-72
2022/01/15 04:00:52;;;;;;;1.75;0.50;;;;;;;7.12;53.10;96546.75;3387408;29;20527;-71
2022/01/15 04:02:33;;;;;;;0.45;0.45;;;;;;;7.09;53.10;96547.28;3390043;29;20534;-70
2022/01/15 04:04:13;;;;;;;2.70;0.77;;;;;;;7.08;52.78;96544.88;3390453;29;20131;-71
2022/01/15 04:05:54;;;;;;;0.50;0.50;;;;;;;7.06;53.17;96553.06;3390319;29;20047;-70
2022/01/15 04:07:35;;;;;;;1.30;0.57;;;;;;;7.05;52.96;96551.47;3390092;29;20040;-71
2022/01/15 04:09:19;;;;;;;5.13;0.93;;;;;;;7.07;52.96;96564.47;3390209;29;20132;-71
2022/01/15 04:10:59;;;;;;;0.60;0.45;;;;;;;7.02;52.92;96556.47;3390354;29;20128;-72
2022/01/15 04:12:40;;;;;;;1.60;0.65;;;;;;;6.97;52.90;96563.31;3389928;29;20048;-71
2022/01/15 04:14:21;;;;;;;0.50;0.50;;;;;;;6.93;52.98;96566.69;3402008;29;20126;-71
2022/01/15 04:16:01;;;;;;;1.27;0.50;;;;;;;6.89;52.89;96566.41;3408239;29;20837;-71
2022/01/15 04:17:44;;;;;;;2.88;0.60;;;;;;;6.84;52.95;96569.00;3411181;29;20044;-71
2022/01/15 04:19:27;;;;;;;0.50;0.50;;;;;;;6.82;53.18;96572.94;3406313;29;20044;-70
2022/01/15 04:21:11;;;;;;;0.50;0.50;;;;;;;6.80;53.09;96573.19;3400564;29;20055;-72
2022/01/15 04:22:53;;;;;;;0.95;0.57;;;;;;;6.80;53.06;96573.19;3400190;29;20051;-70
2022/01/15 04:24:34;;;;;;;;;;;;;;;6.91;53.07;96585.47;3405326;29;20039;-71
2022/01/15 04:26:14;;;;;;;0.57;0.50;;;;;;;6.84;52.77;96576.94;3411079;29;20027;-70
2022/01/15 04:28:01;;;;;;;1.33;0.60;;;;;;;6.80;52.86;96575.03;3410361;29;20048;-71
2022/01/15 04:29:42;;;;;;;0.57;0.57;;;;;;;6.78;53.08;96583.19;3386897;29;20036;-71
2022/01/15 04:31:23;;;;;;;1.50;0.57;;;;;;;6.82;52.98;96572.94;3389027;29;20052;-71
2022/01/15 04:33:03;;;;;;;1.42;0.40;;;;;;;6.88;53.17;96585.19;3390929;29;20072;-73
2022/01/15 04:34:44;;;;;;;3.30;1.25;;;;;;;6.91;52.97;96584.69;3394836;29;20506;-71
2022/01/15 04:36:25;;;;;;;2.00;0.80;;;;;;;6.93;53.13;96582.59;3377994;29;20160;-72
2022/01/15 04:38:10;;;;;;;1.17;0.40;;;;;;;6.95;53.06;96588.44;3387903;29;20047;-71
2022/01/15 04:39:51;;;;;;;1.98;0.70;;;;;;;6.98;52.74;96598.53;3396217;29;20542;-70
2022/01/15 04:41:31;;;;;;;1.13;0.77;;;;;;;6.99;52.73;96598.25;3389521;29;20131;-71
2022/01/15 04:43:12;;;;;;;0.47;0.43;;;;;;;6.95;52.63;96594.53;3400666;29;20043;-70
2022/01/15 04:44:53;;;;;;;0.63;0.50;;;;;;;6.93;52.60;96595.81;3403729;29;20071;-71
2022/01/15 04:46:35;;;;;;;1.25;0.50;;;;;;;6.91;52.56;96609.28;3403273;29;20569;-71
2022/01/15 04:48:16;;;;;;;3.22;0.70;;;;;;;6.90;52.69;96613.00;3403751;29;20036;-71
2022/01/15 04:49:56;;;;;;;0.63;0.63;;;;;;;6.89;52.57;96615.88;3396649;29;20131;-69
2022/01/15 04:51:37;;;;;;;0.88;0.60;;;;;;;6.86;52.56;96617.19;3389894;29;20040;-69
2022/01/15 04:53:18;;;;;;;2.28;0.60;;;;;;;6.85;52.58;96620.88;3394009;29;20038;-70
2022/01/15 04:54:59;;;;;;;0.57;0.57;;;;;;;6.83;52.45;96622.97;3402175;29;20648;-70
2022/01/15 04:56:40;;;;;;;1.42;0.80;;;;;;;6.81;52.60;96625.06;3402891;29;20043;-71
2022/01/15 04:58:20;;;;;;;1.15;0.40;;;;;;;6.77;52.73;96623.97;3402642;29;20048;-70
2022/01/15 05:00:06;;;;;;;0.68;0.50;;;;;;;6.73;52.46;96622.84;3395723;29;20504;-71
2022/01/15 05:01:47;;;;;;;1.17;0.50;;;;;;;6.70;52.54;96626.78;3389681;29;20048;-71
2022/01/15 05:03:28;;;;;;;0.80;0.75;;;;;;;6.71;52.87;96627.56;3390669;29;20039;-69
2022/01/15 05:05:09;;;;;;;1.80;0.70;;;;;;;6.70;52.86;96631.28;3402454;29;20498;-70
2022/01/15 05:06:50;;;;;;;0.55;0.52;;;;;;;6.71;52.90;96643.44;3402726;29;20047;-69
2022/01/15 05:08:31;;;;;;;0.85;0.68;;;;;;;6.72;53.00;96645.06;3402828;29;20150;-69
2022/01/15 05:10:16;;;;;;;0.70;0.40;;;;;;;6.73;52.90;96649.31;3397347;29;20051;-69
2022/01/15 05:12:04;;;;;;;2.25;0.70;;;;;;;6.74;52.60;96658.88;3389355;29;20523;-71
2022/01/15 05:13:44;;;;;;;0.85;0.60;;;;;;;6.79;52.66;96656.28;3394438;29;20571;-70
2022/01/15 05:15:25;;;;;;;1.42;0.98;;;;;;;6.80;52.67;96663.16;3402484;29;20043;-70
2022/01/15 05:17:06;;;;;;;3.38;0.98;;;;;;;6.83;52.82;96665.31;3402262;29;20048;-70
2022/01/15 05:18:46;;;;;;;1.60;0.80;;;;;;;6.91;52.95;96662.25;3402291;29;20059;-70
2022/01/15 05:20:27;;;;;;;0.60;0.60;;;;;;;7.05;53.71;96656.56;3382515;29;20071;-71
2022/01/15 05:22:08;;;;;;;0.85;0.52;;;;;;;7.13;52.79;96654.31;3372337;29;20040;-71
2022/01/15 05:23:48;;;;;;;0.70;0.70;;;;;;;7.22;52.54;96673.22;3390614;29;20039;-71
2022/01/15 05:25:29;;;;;;;1.15;0.73;;;;;;;7.25;52.29;96678.00;3402189;29;20051;-71
2022/01/15 05:27:09;;;;;;;1.85;0.63;;;;;;;7.24;51.85;96681.72;3401993;29;20099;-71
2022/01/15 05:28:50;;;;;;;1.80;0.70;;;;;;;7.22;51.85;96679.28;3388047;29;20040;-71
2022/01/15 05:30:32;;;;;;;1.77;0.82;;;;;;;7.25;51.85;96678.00;3393113;29;20036;-73
2022/01/15 05:32:12;;;;;;;0.60;0.50;;;;;;;7.28;51.85;96688.13;3386442;29;20480;-71
2022/01/15 05:33:53;;;;;;;1.77;0.60;;;;;;;7.28;52.01;96697.91;3376174;29;20047;-72
2022/01/15 05:35:34;;;;;;;9.05;0.90;;;;;;;7.30;51.94;96691.31;3375733;29;20052;-71
2022/01/15 05:37:15;;;;;;;0.55;0.40;;;;;;;7.44;52.78;96702.34;3375583;29;20060;-71
2022/01/15 05:38:59;;;;;;;0.75;0.60;;;;;;;7.61;53.27;96696.94;3375825;29;20076;-70
2022/01/15 05:40:41;;;;;;;1.92;0.90;;;;;;;7.70;52.61;96698.09;3381950;29;20040;-70
2022/01/15 05:42:22;;;;;;;0.50;0.50;;;;;;;7.74;51.91;96701.06;3389020;29;20048;-72
2022/01/15 05:44:03;;;;;;;0.68;0.68;;;;;;;7.73;51.52;96702.13;3380206;29;20036;-74
2022/01/15 05:45:47;;;;;;;1.33;0.93;;;;;;;7.81;52.33;96707.75;3375958;29;20048;-72
2022/01/15 05:47:27;;;;;;;0.70;0.57;;;;;;;8.02;52.86;96715.91;3381771;29;20050;-71
2022/01/15 05:49:08;;;;;;;0.82;0.60;;;;;;;8.16;52.07;96708.31;3388634;29;20055;-70
2022/01/15 05:50:49;;;;;;;1.00;0.50;;;;;;;8.24;51.54;96721.16;3387691;29;20403;-72
2022/01/15 05:52:29;;;;;;;1.80;0.73;;;;;;;8.20;51.07;96710.22;3388531;29;20048;-70
2022/01/15 05:54:11;;;;;;;0.73;0.60;;;;;;;8.11;50.67;96722.38;3387022;29;20099;-71
2022/01/15 05:55:52;;;;;;;0.63;0.50;;;;;;;7.98;50.59;96723.56;3388769;29;20123;-73
2022/01/15 05:57:33;;;;;;;1.05;0.70;;;;;;;7.86;50.44;96739.63;3388591;29;20040;-70
2022/01/15 05:59:13;;;;;;;1.55;0.93;;;;;;;7.76;50.29;96741.38;3374592;29;20041;-72
2022/01/15 06:00:54;;;;;;;0.50;0.50;;;;;;;7.63;50.47;96729.31;3365613;29;20484;-71
2022/01/15 06:02:34;;;;;;;0.63;0.63;;;;;;;7.53;50.66;96737.94;3372850;29;20476;-73
2022/01/15 06:04:15;;;;;;;0.60;0.60;;;;;;;7.49;50.60;96741.34;3381815;29;20040;-72
2022/01/15 06:05:56;;;;;;;0.55;0.55;;;;;;;7.47;50.54;96748.75;3374695;29;20040;-71
2022/01/15 06:07:37;;;;;;;1.33;0.60;;;;;;;7.45;50.44;96754.28;3385789;29;20473;-70
2022/01/15 06:09:18;;;;;;;0.93;0.60;;;;;;;7.41;50.70;96753.97;3387457;29;20048;-70
2022/01/15 06:10:58;;;;;;;2.80;0.60;;;;;;;7.35;50.29;96768.19;3386337;29;20047;-71
2022/01/15 06:12:45;;;;;;;0.85;0.60;;;;;;;7.35;51.13;96767.41;3388215;29;20043;-72
2022/01/15 06:14:26;;;;;;;0.85;0.65;;;;;;;7.43;51.52;96765.13;3388175;29;20415;-73
2022/01/15 06:16:06;;;;;;;1.23;0.80;;;;;;;7.48;50.88;96774.19;3388627;29;20048;-71
2022/01/15 06:17:47;;;;;;;0.50;0.50;;;;;;;7.49;50.71;96770.50;3374863;29;20037;-72
2022/01/15 06:19:28;;;;;;;3.25;0.70;;;;;;;7.42;50.75;96771.47;3385931;29;20048;-72
2022/01/15 06:21:08;;;;;;;1.00;0.60;;;;;;;7.42;50.83;96783.91;3381275;29;20044;-71
2022/01/15 06:22:49;;;;;;;1.85;0.65;;;;;;;7.39;50.73;96789.72;3375486;29;20048;-71
2022/01/15 06:24:30;;;;;;;1.75;0.43;;;;;;;7.35;50.80;96794.69;3383282;29;20046;-71
2022/01/15 06:26:11;;;;;;;2.05;0.73;;;;;;;7.33;50.86;96790.69;3388412;29;20494;-70
2022/01/15 06:27:52;;;;;;;0.97;0.60;;;;;;;7.28;50.78;96795.91;3367830;29;20045;-71
2022/01/15 06:29:32;;;;;;;0.88;0.63;;;;;;;7.22;50.83;96797.69;3382499;29;20040;-71
2022/01/15 06:31:15;;;;;;;2.35;0.60;;;;;;;7.20;50.64;96802.44;3380662;29;20044;-71
2022/01/15 06:32:56;;;;;;;1.15;0.55;;;;;;;7.21;50.81;96804.06;3383572;29;20060;-72
2022/01/15 06:34:36;;;;;;;1.85;0.75;;;;;;;7.22;51.00;96803.78;3389536;29;20816;-72
2022/01/15 06:36:17;;;;;;;0.80;0.80;;;;;;;7.22;50.85;96803.00;3389140;29;20583;-71
2022/01/15 06:37:58;;;;;;;0.75;0.60;;;;;;;7.22;50.88;96805.66;3395912;29;20040;-73
2022/01/15 06:39:39;;;;;;;0.77;0.60;;;;;;;7.22;51.01;96816.25;3402067;29;20075;-71
2022/01/15 06:41:19;;;;;;;0.50;0.50;;;;;;;7.21;51.14;96814.66;3401859;29;20410;-72
2022/01/15 06:43:01;;;;;;;1.10;0.70;;;;;;;7.22;51.11;96816.25;3387377;29;20052;-73
2022/01/15 06:44:41;;;;;;;0.97;0.63;;;;;;;7.26;51.03;96825.31;3377962;29;20135;-70
2022/01/15 06:46:22;;;;;;;6.75;0.70;;;;;;;7.29;51.14;96832.75;3389394;29;20055;-72
2022/01/15 06:48:03;;;;;;;2.45;0.80;;;;;;;7.28;51.12;96833.81;3391167;29;20139;-70
2022/01/15 06:49:44;;;;;;;1.85;0.65;;;;;;;7.30;51.12;96823.75;3391592;29;20052;-72
2022/01/15 06:51:25;;;;;;;2.35;0.70;;;;;;;7.37;51.24;96835.00;3391473;29;20500;-74
2022/01/15 06:53:06;;;;;;;2.45;0.70;;;;;;;7.46;51.15;96831.91;3391222;29;20044;-72
2022/01/15 06:54:47;;;;;;;1.05;0.65;;;;;;;7.55;51.07;96835.75;3399400;29;20051;-72
2022/01/15 06:56:29;;;;;;;2.83;0.70;;;;;;;7.69;51.55;96849.44;3403299;29;20032;-71
2022/01/15 06:58:10;;;;;;;;;;;;;;;7.86;51.58;96845.69;3397167;29;20044;-70
2022/01/15 06:59:53;;;;;;;0.85;0.50;;;;;;;7.88;51.05;96834.84;3392668;29;19918;-71
2022/01/15 07:01:33;;;;;;;7.57;0.88;;;;;;;7.90;50.68;96842.53;3400069;29;20587;-71
2022/01/15 07:03:14;;;;;;;0.80;0.80;;;;;;;7.88;50.35;96849.97;3383914;29;20040;-72
2022/01/15 07:04:55;;;;;;;2.65;0.60;;;;;;;7.84;50.42;96853.06;3396033;29;20126;-72
2022/01/15 07:06:39;;;;;;;0.60;0.52;;;;;;;7.83;50.62;96854.13;3395019;29;20138;-74
2022/01/15 07:08:19;;;;;;;0.63;0.63;;;;;;;7.80;50.42;96862.59;3391929;29;20044;-70
2022/01/15 07:10:00;;;;;;;1.85;0.60;;;;;;;7.78;50.43;96861.22;3392296;29;20456;-72
2022/01/15 07:11:41;;;;;;;3.63;0.90;;;;;;;7.78;50.51;96866.53;3404235;29;20400;-71
2022/01/15 07:13:22;;;;;;;1.15;1.05;;;;;;;7.77;50.22;96865.75;3404210;29;20051;-71
2022/01/15 07:15:03;;;;;;;1.08;0.60;;;;;;;7.77;50.27;96868.38;3393447;29;20471;-71
2022/01/15 07:16:46;;;;;;;2.30;0.80;;;;;;;7.76;50.26;96877.38;3392174;29;20040;-70
2022/01/15 07:18:26;;;;;;;2.15;0.70;;;;;;;7.74;50.43;96876.81;3401079;29;20130;-71
2022/01/15 07:20:08;;;;;;;0.82;0.52;;;;;;;7.73;50.44;96880.53;3399705;29;20465;-73
2022/01/15 07:21:48;;;;;;;1.75;0.60;;;;;;;7.74;50.43;96881.31;3394041;29;20043;-72
2022/01/15 07:23:30;;;;;;;1.20;0.70;;;;;;;7.74;50.46;96882.13;3395700;29;20074;-72
2022/01/15 07:25:11;;;;;;;5.60;0.95;;;;;;;7.73;50.33;96885.81;3400446;29;20107;-72
2022/01/15 07:26:52;;;;;;;4.68;1.48;;;;;;;7.71;50.36;96882.59;3404355;29;20415;-72
2022/01/15 07:28:33;;;;;;;1.02;0.85;;;;;;;7.69;50.60;96895.31;3401891;29;20036;-72
2022/01/15 07:30:14;;;;;;;1.23;0.50;;;;;;;7.73;50.71;96883.16;3401525;29;20135;-72
2022/01/15 07:31:55;;;;;;;1.15;0.60;;;;;;;7.75;50.50;96894.34;3403576;29;20111;-72
2022/01/15 07:33:36;;;;;;;2.50;0.52;;;;;;;7.71;50.26;96895.06;3402412;29;20043;-71
2022/01/15 07:35:17;;;;;;;4.05;0.70;;;;;;;7.65;50.36;96896.84;3397516;29;20087;-72
2022/01/15 07:36:58;;;;;;;0.88;0.50;;;;;;;7.58;50.70;96893.56;3392118;29;20036;-71
2022/01/15 07:38:39;;;;;;;0.68;0.55;;;;;;;7.53;50.48;96904.91;3394617;29;20135;-73
2022/01/15 07:40:20;;;;;;;1.85;0.70;;;;;;;7.47;50.60;96902.44;3395629;29;20067;-73
2022/01/15 07:42:00;;;;;;;1.20;0.77;;;;;;;7.40;50.73;96898.09;3385043;29;20095;-71
2022/01/15 07:43:44;;;;;;;1.25;0.88;;;;;;;7.37;50.73;96909.19;3384546;29;20078;-71
2022/01/15 07:45:25;;;;;;;1.88;0.80;;;;;;;7.39;51.00;96907.09;3393093;29;20048;-71
2022/01/15 07:47:06;;;;;;;1.30;0.55;;;;;;;7.40;51.43;96908.69;3393165;29;20071;-72
2022/01/15 07:48:46;;;;;;;2.88;0.65;;;;;;;7.39;51.59;96904.44;3402409;29;20036;-73
2022/01/15 07:50:27;;;;;;;2.05;0.90;;;;;;;7.36;51.60;96920.03;3404071;29;20100;-69
2022/01/15 07:52:08;;;;;;;1.25;0.70;;;;;;;7.34;51.92;96914.97;3403386;29;20083;-71
2022/01/15 07:53:50;;;;;;;4.00;0.98;;;;;;;7.33;51.87;96929.28;3403524;29;20545;-72
2022/01/15 07:55:30;;;;;;;1.50;1.13;;;;;;;7.30;51.64;96927.06;3403774;29;20122;-72
2022/01/15 07:57:12;;;;;;;2.03;0.70;;;;;;;7.24;51.94;96932.56;3403910;29;20355;-69
2022/01/15 07:58:54;;;;;;;1.40;1.05;;;;;;;7.19;51.68;96946.50;3401234;29;20042;-70
2022/01/15 08:00:35;;;;;;;1.33;0.60;;;;;;;7.13;51.75;96940.34;3403917;29;20046;-70
2022/01/15 08:02:17;;;;;;;0.95;0.85;;;;;;;7.11;51.90;96937.13;3403943;29;20067;-71
2022/01/15 08:03:58;;;;;;;0.93;0.85;;;;;;;7.13;52.48;96945.63;3391504;29;20147;-71
2022/01/15 08:05:39;;;;;;;1.25;1.00;;;;;;;7.19;52.89;96938.56;3390885;29;20052;-70
2022/01/15 08:07:20;;;;;;;2.70;0.73;;;;;;;7.29;53.40;96957.28;3390775;29;20055;-68
2022/01/15 08:09:00;;;;;;;14.02;1.67;;;;;;;7.37;53.23;96954.22;3390121;29;20051;-71
2022/01/15 08:10:42;;;;;;;1.15;0.85;;;;;;;7.41;53.41;96958.00;3390340;29;20040;-69
2022/01/15 08:12:23;;;;;;;1.55;0.80;;;;;;;7.46;53.37;96961.75;3398155;29;20039;-71
2022/01/15 08:14:04;;;;;;;0.85;0.80;;;;;;;7.50;54.38;96971.63;3399257;29;20071;-72
2022/01/15 08:15:45;;;;;;;1.67;0.70;;;;;;;7.56;54.60;96962.75;3393840;29;20043;-70
2022/01/15 08:17:26;;;;;;;0.70;0.70;;;;;;;7.64;53.95;96972.09;3397657;29;20465;-75
2022/01/15 08:19:06;;;;;;;1.00;0.55;;;;;;;7.69;53.91;96966.88;3376939;29;20063;-73
2022/01/15 08:20:48;;;;;;;0.70;0.65;;;;;;;7.71;53.94;96966.66;3387408;29;20107;-71
2022/01/15 08:22:29;;;;;;;2.83;0.68;;;;;;;7.72;53.87;96969.06;3392297;29;20051;-74
2022/01/15 08:24:11;;;;;;;0.60;0.60;;;;;;;7.73;53.79;96969.84;3388929;29;20044;-73
2022/01/15 08:25:52;;;;;;;;;;;;;;;7.80;53.38;96971.28;3392228;29;20486;-73